sensor_id;sensor_type;location;lat;lon;timestamp;P1;durP1;ratioP1;P2;durP2;ratioP2
44893;SDS011;30625;52.206;21.030;2022-11-09T00:00:38;34.95;;;20.58;;
44893;SDS011;30625;52.206;21.030;2022-11-09T00:03:05;38.47;;;19.80;;
44893;SDS011;30625;52.206;21.030;2022-11-09T00:05:31;31.45;;;19.90;;
44893;SDS011;30625;52.206;21.030;2022-11-09T00:07:56;36.60;;;20.13;;
44893;SDS011;30625;52.206;21.030;2022-11-09T00:10:22;36.83;;;19.23;;
44893;SDS011;30625;52.206;21.030;2022-11-09T00:12:48;38.20;;;20.52;;
44893;SDS011;30625;52.206;21.030;2022-11-09T00:15:14;38.67;;;19.77;;
44893;SDS011;30625;52.206;21.030;2022-11-09T00:17:39;37.90;;;20.98;;
44893;SDS011;30625;52.206;21.030;2022-11-09T00:20:05;36.10;;;21.48;;
44893;SDS011;30625;52.206;21.030;2022-11-09T00:22:31;38.38;;;21.27;;
44893;SDS011;30625;52.206;21.030;2022-11-09T00:24:57;35.05;;;21.73;;
44893;SDS011;30625;52.206;21.030;2022-11-09T00:27:22;38.83;;;21.15;;
44893;SDS011;30625;52.206;21.030;2022-11-09T00:29:48;38.90;;;22.17;;
44893;SDS011;30625;52.206;21.030;2022-11-09T00:32:14;42.00;;;21.45;;
44893;SDS011;30625;52.206;21.030;2022-11-09T00:34:39;38.80;;;21.85;;
44893;SDS011;30625;52.206;21.030;2022-11-09T00:37:05;35.05;;;20.63;;
44893;SDS011;30625;52.206;21.030;2022-11-09T00:39:31;40.90;;;20.67;;
44893;SDS011;30625;52.206;21.030;2022-11-09T00:41:56;34.60;;;20.92;;
44893;SDS011;30625;52.206;21.030;2022-11-09T00:44:22;33.25;;;20.30;;
44893;SDS011;30625;52.206;21.030;2022-11-09T00:46:48;41.38;;;20.55;;
44893;SDS011;30625;52.206;21.030;2022-11-09T00:49:13;37.72;;;20.63;;
44893;SDS011;30625;52.206;21.030;2022-11-09T00:51:39;37.92;;;21.15;;
44893;SDS011;30625;52.206;21.030;2022-11-09T00:54:05;35.67;;;19.90;;
44893;SDS011;30625;52.206;21.030;2022-11-09T00:56:32;41.65;;;21.23;;
44893;SDS011;30625;52.206;21.030;2022-11-09T00:58:57;36.53;;;20.48;;
44893;SDS011;30625;52.206;21.030;2022-11-09T01:01:23;36.38;;;20.15;;
44893;SDS011;30625;52.206;21.030;2022-11-09T01:03:49;37.95;;;20.08;;
44893;SDS011;30625;52.206;21.030;2022-11-09T01:06:16;35.83;;;18.35;;
44893;SDS011;30625;52.206;21.030;2022-11-09T01:08:44;36.38;;;20.55;;
44893;SDS011;30625;52.206;21.030;2022-11-09T01:11:10;35.72;;;19.95;;
44893;SDS011;30625;52.206;21.030;2022-11-09T01:13:37;36.58;;;20.95;;
44893;SDS011;30625;52.206;21.030;2022-11-09T01:16:03;38.13;;;19.77;;
44893;SDS011;30625;52.206;21.030;2022-11-09T01:18:31;34.85;;;19.20;;
44893;SDS011;30625;52.206;21.030;2022-11-09T01:20:57;39.38;;;19.73;;
44893;SDS011;30625;52.206;21.030;2022-11-09T01:23:22;35.22;;;19.00;;
44893;SDS011;30625;52.206;21.030;2022-11-09T01:25:48;37.28;;;19.58;;
44893;SDS011;30625;52.206;21.030;2022-11-09T01:28:22;36.95;;;19.73;;
44893;SDS011;30625;52.206;21.030;2022-11-09T01:30:48;34.30;;;18.80;;
44893;SDS011;30625;52.206;21.030;2022-11-09T01:33:14;37.20;;;21.23;;
44893;SDS011;30625;52.206;21.030;2022-11-09T01:35:40;34.80;;;19.20;;
44893;SDS011;30625;52.206;21.030;2022-11-09T01:38:06;36.05;;;20.00;;
44893;SDS011;30625;52.206;21.030;2022-11-09T01:40:34;34.95;;;18.83;;
44893;SDS011;30625;52.206;21.030;2022-11-09T01:43:21;35.13;;;19.25;;
44893;SDS011;30625;52.206;21.030;2022-11-09T01:45:49;32.42;;;18.77;;
44893;SDS011;30625;52.206;21.030;2022-11-09T01:51:14;36.05;;;18.60;;
44893;SDS011;30625;52.206;21.030;2022-11-09T01:53:48;35.90;;;19.38;;
44893;SDS011;30625;52.206;21.030;2022-11-09T01:56:20;34.55;;;20.02;;
44893;SDS011;30625;52.206;21.030;2022-11-09T01:58:53;38.83;;;19.70;;
44893;SDS011;30625;52.206;21.030;2022-11-09T02:01:23;31.83;;;18.90;;
44893;SDS011;30625;52.206;21.030;2022-11-09T02:06:33;34.35;;;17.70;;
44893;SDS011;30625;52.206;21.030;2022-11-09T02:09:11;33.25;;;18.42;;
44893;SDS011;30625;52.206;21.030;2022-11-09T02:11:49;39.25;;;20.42;;
44893;SDS011;30625;52.206;21.030;2022-11-09T02:14:14;39.00;;;20.13;;
44893;SDS011;30625;52.206;21.030;2022-11-09T02:16:41;36.80;;;20.25;;
44893;SDS011;30625;52.206;21.030;2022-11-09T02:19:08;42.45;;;20.58;;
44893;SDS011;30625;52.206;21.030;2022-11-09T02:21:33;37.30;;;19.38;;
44893;SDS011;30625;52.206;21.030;2022-11-09T02:23:59;37.38;;;19.35;;
44893;SDS011;30625;52.206;21.030;2022-11-09T02:26:27;32.00;;;17.85;;
44893;SDS011;30625;52.206;21.030;2022-11-09T02:29:01;34.55;;;19.85;;
44893;SDS011;30625;52.206;21.030;2022-11-09T02:31:33;37.63;;;19.70;;
44893;SDS011;30625;52.206;21.030;2022-11-09T02:34:06;36.10;;;19.48;;
44893;SDS011;30625;52.206;21.030;2022-11-09T02:36:34;36.65;;;19.40;;
44893;SDS011;30625;52.206;21.030;2022-11-09T02:39:00;35.10;;;18.92;;
44893;SDS011;30625;52.206;21.030;2022-11-09T02:41:26;36.88;;;19.48;;
44893;SDS011;30625;52.206;21.030;2022-11-09T02:43:54;37.30;;;19.20;;
44893;SDS011;30625;52.206;21.030;2022-11-09T02:46:24;34.60;;;18.00;;
44893;SDS011;30625;52.206;21.030;2022-11-09T02:48:58;32.05;;;18.85;;
44893;SDS011;30625;52.206;21.030;2022-11-09T02:51:24;36.95;;;20.30;;
44893;SDS011;30625;52.206;21.030;2022-11-09T02:53:50;35.75;;;19.58;;
44893;SDS011;30625;52.206;21.030;2022-11-09T02:56:15;39.42;;;18.92;;
44893;SDS011;30625;52.206;21.030;2022-11-09T02:58:41;31.88;;;17.63;;
44893;SDS011;30625;52.206;21.030;2022-11-09T03:01:07;33.15;;;19.05;;
44893;SDS011;30625;52.206;21.030;2022-11-09T03:03:33;38.72;;;20.75;;
44893;SDS011;30625;52.206;21.030;2022-11-09T03:05:58;37.53;;;18.70;;
44893;SDS011;30625;52.206;21.030;2022-11-09T03:08:24;36.97;;;21.30;;
44893;SDS011;30625;52.206;21.030;2022-11-09T03:10:50;44.83;;;21.48;;
44893;SDS011;30625;52.206;21.030;2022-11-09T03:13:15;37.20;;;19.75;;
44893;SDS011;30625;52.206;21.030;2022-11-09T03:15:41;36.35;;;20.55;;
44893;SDS011;30625;52.206;21.030;2022-11-09T03:18:07;41.25;;;20.70;;
44893;SDS011;30625;52.206;21.030;2022-11-09T03:20:32;37.45;;;18.98;;
44893;SDS011;30625;52.206;21.030;2022-11-09T03:22:58;40.58;;;20.75;;
44893;SDS011;30625;52.206;21.030;2022-11-09T03:25:24;35.47;;;20.25;;
44893;SDS011;30625;52.206;21.030;2022-11-09T03:27:57;46.13;;;20.67;;
44893;SDS011;30625;52.206;21.030;2022-11-09T03:30:24;42.03;;;21.15;;
44893;SDS011;30625;52.206;21.030;2022-11-09T03:32:50;45.33;;;20.88;;
44893;SDS011;30625;52.206;21.030;2022-11-09T03:35:21;40.05;;;20.95;;
44893;SDS011;30625;52.206;21.030;2022-11-09T03:37:46;38.28;;;20.15;;
44893;SDS011;30625;52.206;21.030;2022-11-09T03:40:12;50.72;;;22.65;;
44893;SDS011;30625;52.206;21.030;2022-11-09T03:42:42;41.92;;;21.60;;
44893;SDS011;30625;52.206;21.030;2022-11-09T03:45:08;41.78;;;20.63;;
44893;SDS011;30625;52.206;21.030;2022-11-09T03:47:34;38.40;;;21.75;;
44893;SDS011;30625;52.206;21.030;2022-11-09T03:50:00;42.03;;;22.15;;
44893;SDS011;30625;52.206;21.030;2022-11-09T03:52:26;43.72;;;21.63;;
44893;SDS011;30625;52.206;21.030;2022-11-09T03:54:51;40.00;;;20.40;;
44893;SDS011;30625;52.206;21.030;2022-11-09T03:57:17;40.53;;;20.80;;
44893;SDS011;30625;52.206;21.030;2022-11-09T03:59:43;46.38;;;22.23;;
44893;SDS011;30625;52.206;21.030;2022-11-09T04:02:08;40.92;;;19.65;;
44893;SDS011;30625;52.206;21.030;2022-11-09T04:04:37;45.50;;;22.15;;
44893;SDS011;30625;52.206;21.030;2022-11-09T04:07:02;40.75;;;20.33;;
44893;SDS011;30625;52.206;21.030;2022-11-09T04:09:28;42.85;;;20.77;;
44893;SDS011;30625;52.206;21.030;2022-11-09T04:11:53;37.35;;;20.25;;
44893;SDS011;30625;52.206;21.030;2022-11-09T04:14:19;40.92;;;19.98;;
44893;SDS011;30625;52.206;21.030;2022-11-09T04:16:45;39.22;;;20.67;;
44893;SDS011;30625;52.206;21.030;2022-11-09T04:19:10;41.47;;;21.02;;
44893;SDS011;30625;52.206;21.030;2022-11-09T04:21:36;42.05;;;20.63;;
44893;SDS011;30625;52.206;21.030;2022-11-09T04:24:02;39.50;;;19.95;;
44893;SDS011;30625;52.206;21.030;2022-11-09T04:26:28;37.63;;;19.65;;
44893;SDS011;30625;52.206;21.030;2022-11-09T04:28:53;37.83;;;20.23;;
44893;SDS011;30625;52.206;21.030;2022-11-09T04:31:19;38.88;;;20.73;;
44893;SDS011;30625;52.206;21.030;2022-11-09T04:33:48;41.72;;;21.45;;
44893;SDS011;30625;52.206;21.030;2022-11-09T04:36:14;37.03;;;21.23;;
44893;SDS011;30625;52.206;21.030;2022-11-09T04:38:40;39.72;;;21.38;;
44893;SDS011;30625;52.206;21.030;2022-11-09T04:41:06;39.55;;;20.20;;
44893;SDS011;30625;52.206;21.030;2022-11-09T04:43:32;40.55;;;20.13;;
44893;SDS011;30625;52.206;21.030;2022-11-09T04:46:01;39.67;;;20.17;;
44893;SDS011;30625;52.206;21.030;2022-11-09T04:48:28;39.28;;;19.65;;
44893;SDS011;30625;52.206;21.030;2022-11-09T04:50:59;36.95;;;19.20;;
44893;SDS011;30625;52.206;21.030;2022-11-09T04:53:26;37.92;;;19.77;;
44893;SDS011;30625;52.206;21.030;2022-11-09T04:55:52;38.97;;;20.40;;
44893;SDS011;30625;52.206;21.030;2022-11-09T04:58:18;43.75;;;20.77;;
44893;SDS011;30625;52.206;21.030;2022-11-09T05:00:43;37.20;;;18.90;;
44893;SDS011;30625;52.206;21.030;2022-11-09T05:03:09;38.75;;;19.52;;
44893;SDS011;30625;52.206;21.030;2022-11-09T05:05:35;36.47;;;18.90;;
44893;SDS011;30625;52.206;21.030;2022-11-09T05:08:02;35.10;;;17.95;;
44893;SDS011;30625;52.206;21.030;2022-11-09T05:10:29;34.33;;;19.65;;
44893;SDS011;30625;52.206;21.030;2022-11-09T05:13:02;34.53;;;18.25;;
44893;SDS011;30625;52.206;21.030;2022-11-09T05:15:29;37.97;;;20.20;;
44893;SDS011;30625;52.206;21.030;2022-11-09T05:17:55;39.08;;;19.77;;
44893;SDS011;30625;52.206;21.030;2022-11-09T05:20:22;38.17;;;19.02;;
44893;SDS011;30625;52.206;21.030;2022-11-09T05:25:32;39.40;;;19.20;;
44893;SDS011;30625;52.206;21.030;2022-11-09T05:27:58;39.97;;;19.50;;
44893;SDS011;30625;52.206;21.030;2022-11-09T05:30:24;38.90;;;18.73;;
44893;SDS011;30625;52.206;21.030;2022-11-09T05:32:50;38.03;;;19.90;;
44893;SDS011;30625;52.206;21.030;2022-11-09T05:35:16;37.60;;;19.38;;
44893;SDS011;30625;52.206;21.030;2022-11-09T05:37:41;43.05;;;20.05;;
44893;SDS011;30625;52.206;21.030;2022-11-09T05:40:12;42.00;;;19.92;;
44893;SDS011;30625;52.206;21.030;2022-11-09T05:42:38;39.63;;;19.88;;
44893;SDS011;30625;52.206;21.030;2022-11-09T05:45:05;37.42;;;19.08;;
44893;SDS011;30625;52.206;21.030;2022-11-09T05:47:39;40.85;;;19.40;;
44893;SDS011;30625;52.206;21.030;2022-11-09T05:50:07;40.42;;;20.50;;
44893;SDS011;30625;52.206;21.030;2022-11-09T05:52:35;38.58;;;18.92;;
44893;SDS011;30625;52.206;21.030;2022-11-09T05:55:00;38.10;;;19.00;;
44893;SDS011;30625;52.206;21.030;2022-11-09T05:57:27;39.88;;;19.27;;
44893;SDS011;30625;52.206;21.030;2022-11-09T05:59:53;38.78;;;20.27;;
44893;SDS011;30625;52.206;21.030;2022-11-09T06:02:19;41.30;;;19.67;;
44893;SDS011;30625;52.206;21.030;2022-11-09T06:04:44;43.38;;;19.83;;
44893;SDS011;30625;52.206;21.030;2022-11-09T06:07:10;41.00;;;21.92;;
44893;SDS011;30625;52.206;21.030;2022-11-09T06:09:36;37.22;;;18.95;;
44893;SDS011;30625;52.206;21.030;2022-11-09T06:12:02;41.55;;;21.15;;
44893;SDS011;30625;52.206;21.030;2022-11-09T06:14:28;35.53;;;18.75;;
44893;SDS011;30625;52.206;21.030;2022-11-09T06:16:53;37.47;;;19.15;;
44893;SDS011;30625;52.206;21.030;2022-11-09T06:19:19;40.05;;;20.15;;
44893;SDS011;30625;52.206;21.030;2022-11-09T06:21:45;41.40;;;20.08;;
44893;SDS011;30625;52.206;21.030;2022-11-09T06:24:10;41.08;;;20.67;;
44893;SDS011;30625;52.206;21.030;2022-11-09T06:26:36;42.75;;;20.33;;
44893;SDS011;30625;52.206;21.030;2022-11-09T06:29:02;39.17;;;19.85;;
44893;SDS011;30625;52.206;21.030;2022-11-09T06:31:28;43.80;;;21.77;;
44893;SDS011;30625;52.206;21.030;2022-11-09T06:33:54;45.47;;;20.83;;
44893;SDS011;30625;52.206;21.030;2022-11-09T06:36:19;42.88;;;20.70;;
44893;SDS011;30625;52.206;21.030;2022-11-09T06:38:49;41.95;;;21.52;;
44893;SDS011;30625;52.206;21.030;2022-11-09T06:41:16;45.97;;;20.65;;
44893;SDS011;30625;52.206;21.030;2022-11-09T06:43:42;45.45;;;21.48;;
44893;SDS011;30625;52.206;21.030;2022-11-09T06:46:08;40.00;;;19.88;;
44893;SDS011;30625;52.206;21.030;2022-11-09T06:48:38;38.60;;;19.55;;
44893;SDS011;30625;52.206;21.030;2022-11-09T06:51:04;41.55;;;20.92;;
44893;SDS011;30625;52.206;21.030;2022-11-09T06:53:31;42.63;;;20.75;;
44893;SDS011;30625;52.206;21.030;2022-11-09T06:55:59;43.10;;;21.80;;
44893;SDS011;30625;52.206;21.030;2022-11-09T06:58:26;49.25;;;21.83;;
44893;SDS011;30625;52.206;21.030;2022-11-09T07:00:52;42.42;;;22.13;;
44893;SDS011;30625;52.206;21.030;2022-11-09T07:03:19;47.83;;;22.73;;
44893;SDS011;30625;52.206;21.030;2022-11-09T07:05:46;40.25;;;22.30;;
44893;SDS011;30625;52.206;21.030;2022-11-09T07:08:13;47.70;;;22.80;;
44893;SDS011;30625;52.206;21.030;2022-11-09T07:10:39;44.65;;;22.67;;
44893;SDS011;30625;52.206;21.030;2022-11-09T07:13:05;48.75;;;24.63;;
44893;SDS011;30625;52.206;21.030;2022-11-09T07:15:32;45.40;;;23.30;;
44893;SDS011;30625;52.206;21.030;2022-11-09T07:18:00;50.97;;;23.73;;
44893;SDS011;30625;52.206;21.030;2022-11-09T07:20:27;49.22;;;23.05;;
44893;SDS011;30625;52.206;21.030;2022-11-09T07:22:53;47.67;;;22.45;;
44893;SDS011;30625;52.206;21.030;2022-11-09T07:25:19;51.50;;;23.00;;
44893;SDS011;30625;52.206;21.030;2022-11-09T07:27:45;46.65;;;23.73;;
44893;SDS011;30625;52.206;21.030;2022-11-09T07:30:11;50.90;;;23.20;;
44893;SDS011;30625;52.206;21.030;2022-11-09T07:32:38;46.75;;;22.90;;
44893;SDS011;30625;52.206;21.030;2022-11-09T07:35:04;50.80;;;23.23;;
44893;SDS011;30625;52.206;21.030;2022-11-09T07:37:31;45.78;;;22.23;;
44893;SDS011;30625;52.206;21.030;2022-11-09T07:39:56;45.38;;;21.35;;
44893;SDS011;30625;52.206;21.030;2022-11-09T07:42:23;45.40;;;22.77;;
44893;SDS011;30625;52.206;21.030;2022-11-09T07:47:15;45.05;;;22.52;;
44893;SDS011;30625;52.206;21.030;2022-11-09T07:49:44;45.90;;;23.13;;
44893;SDS011;30625;52.206;21.030;2022-11-09T07:52:11;45.30;;;23.20;;
44893;SDS011;30625;52.206;21.030;2022-11-09T07:54:37;46.05;;;23.98;;
44893;SDS011;30625;52.206;21.030;2022-11-09T07:57:03;44.60;;;21.60;;
44893;SDS011;30625;52.206;21.030;2022-11-09T07:59:29;47.38;;;21.55;;
44893;SDS011;30625;52.206;21.030;2022-11-09T08:01:56;39.35;;;21.25;;
44893;SDS011;30625;52.206;21.030;2022-11-09T08:06:50;44.88;;;21.33;;
44893;SDS011;30625;52.206;21.030;2022-11-09T08:09:17;45.65;;;23.65;;
44893;SDS011;30625;52.206;21.030;2022-11-09T08:11:43;38.92;;;19.95;;
44893;SDS011;30625;52.206;21.030;2022-11-09T08:14:09;42.45;;;21.70;;
44893;SDS011;30625;52.206;21.030;2022-11-09T08:16:35;45.55;;;21.88;;
44893;SDS011;30625;52.206;21.030;2022-11-09T08:19:01;43.80;;;21.30;;
44893;SDS011;30625;52.206;21.030;2022-11-09T08:21:27;42.05;;;21.42;;
44893;SDS011;30625;52.206;21.030;2022-11-09T08:23:52;37.67;;;19.92;;
44893;SDS011;30625;52.206;21.030;2022-11-09T08:26:18;41.88;;;20.60;;
44893;SDS011;30625;52.206;21.030;2022-11-09T08:28:44;41.15;;;20.00;;
44893;SDS011;30625;52.206;21.030;2022-11-09T08:31:10;43.33;;;20.60;;
44893;SDS011;30625;52.206;21.030;2022-11-09T08:33:38;41.42;;;20.58;;
44893;SDS011;30625;52.206;21.030;2022-11-09T08:36:11;41.65;;;19.88;;
44893;SDS011;30625;52.206;21.030;2022-11-09T08:38:39;40.13;;;20.50;;
44893;SDS011;30625;52.206;21.030;2022-11-09T08:41:06;39.75;;;20.38;;
44893;SDS011;30625;52.206;21.030;2022-11-09T08:43:33;40.63;;;20.75;;
44893;SDS011;30625;52.206;21.030;2022-11-09T08:45:58;37.67;;;20.98;;
44893;SDS011;30625;52.206;21.030;2022-11-09T08:48:24;55.88;;;21.35;;
44893;SDS011;30625;52.206;21.030;2022-11-09T08:50:54;40.17;;;20.60;;
44893;SDS011;30625;52.206;21.030;2022-11-09T08:53:22;40.88;;;20.05;;
44893;SDS011;30625;52.206;21.030;2022-11-09T08:55:49;40.78;;;20.98;;
44893;SDS011;30625;52.206;21.030;2022-11-09T08:58:15;40.50;;;20.15;;
44893;SDS011;30625;52.206;21.030;2022-11-09T09:00:42;37.42;;;20.35;;
44893;SDS011;30625;52.206;21.030;2022-11-09T09:03:08;39.30;;;18.85;;
44893;SDS011;30625;52.206;21.030;2022-11-09T09:05:34;37.22;;;20.23;;
44893;SDS011;30625;52.206;21.030;2022-11-09T09:08:00;42.38;;;21.85;;
44893;SDS011;30625;52.206;21.030;2022-11-09T09:10:28;41.00;;;19.52;;
44893;SDS011;30625;52.206;21.030;2022-11-09T09:12:54;38.13;;;20.35;;
44893;SDS011;30625;52.206;21.030;2022-11-09T09:15:20;38.55;;;20.35;;
44893;SDS011;30625;52.206;21.030;2022-11-09T09:17:47;37.33;;;20.13;;
44893;SDS011;30625;52.206;21.030;2022-11-09T09:20:13;37.28;;;20.20;;
44893;SDS011;30625;52.206;21.030;2022-11-09T09:22:40;45.35;;;21.63;;
44893;SDS011;30625;52.206;21.030;2022-11-09T09:25:06;40.03;;;21.27;;
44893;SDS011;30625;52.206;21.030;2022-11-09T09:29:58;45.22;;;21.02;;
44893;SDS011;30625;52.206;21.030;2022-11-09T09:32:24;38.50;;;19.42;;
44893;SDS011;30625;52.206;21.030;2022-11-09T09:34:50;39.17;;;21.88;;
44893;SDS011;30625;52.206;21.030;2022-11-09T09:37:16;36.40;;;19.75;;
44893;SDS011;30625;52.206;21.030;2022-11-09T09:39:42;36.92;;;19.73;;
44893;SDS011;30625;52.206;21.030;2022-11-09T09:42:12;38.40;;;19.42;;
44893;SDS011;30625;52.206;21.030;2022-11-09T09:44:42;36.08;;;19.90;;
44893;SDS011;30625;52.206;21.030;2022-11-09T09:47:17;38.58;;;21.30;;
44893;SDS011;30625;52.206;21.030;2022-11-09T09:50:10;39.25;;;19.73;;
44893;SDS011;30625;52.206;21.030;2022-11-09T09:55:36;37.15;;;20.30;;
44893;SDS011;30625;52.206;21.030;2022-11-09T09:58:22;34.55;;;19.83;;
44893;SDS011;30625;52.206;21.030;2022-11-09T10:00:55;33.90;;;19.02;;
44893;SDS011;30625;52.206;21.030;2022-11-09T10:03:29;41.60;;;20.65;;
44893;SDS011;30625;52.206;21.030;2022-11-09T10:08:46;38.67;;;20.75;;
44893;SDS011;30625;52.206;21.030;2022-11-09T10:16:54;34.35;;;19.90;;
44893;SDS011;30625;52.206;21.030;2022-11-09T10:19:42;39.30;;;21.08;;
44893;SDS011;30625;52.206;21.030;2022-11-09T10:25:28;41.72;;;21.23;;
44893;SDS011;30625;52.206;21.030;2022-11-09T10:28:00;37.88;;;20.92;;
44893;SDS011;30625;52.206;21.030;2022-11-09T10:30:28;40.78;;;20.92;;
44893;SDS011;30625;52.206;21.030;2022-11-09T10:32:55;36.90;;;20.63;;
44893;SDS011;30625;52.206;21.030;2022-11-09T10:35:29;38.22;;;20.23;;
44893;SDS011;30625;52.206;21.030;2022-11-09T10:38:00;37.05;;;20.00;;
44893;SDS011;30625;52.206;21.030;2022-11-09T10:42:56;37.22;;;20.08;;
44893;SDS011;30625;52.206;21.030;2022-11-09T10:47:56;36.90;;;20.90;;
44893;SDS011;30625;52.206;21.030;2022-11-09T10:50:29;37.45;;;20.95;;
44893;SDS011;30625;52.206;21.030;2022-11-09T10:53:11;37.60;;;21.77;;
44893;SDS011;30625;52.206;21.030;2022-11-09T10:55:52;37.30;;;19.90;;
44893;SDS011;30625;52.206;21.030;2022-11-09T11:03:25;34.33;;;19.02;;
44893;SDS011;30625;52.206;21.030;2022-11-09T11:05:56;40.22;;;20.40;;
44893;SDS011;30625;52.206;21.030;2022-11-09T11:08:32;35.07;;;20.33;;
44893;SDS011;30625;52.206;21.030;2022-11-09T11:11:05;35.17;;;19.08;;
44893;SDS011;30625;52.206;21.030;2022-11-09T11:13:42;36.28;;;19.67;;
44893;SDS011;30625;52.206;21.030;2022-11-09T11:16:30;37.50;;;20.17;;
44893;SDS011;30625;52.206;21.030;2022-11-09T11:18:58;37.45;;;19.30;;
44893;SDS011;30625;52.206;21.030;2022-11-09T11:26:58;36.08;;;19.63;;
44893;SDS011;30625;52.206;21.030;2022-11-09T11:29:34;35.15;;;19.40;;
44893;SDS011;30625;52.206;21.030;2022-11-09T11:32:11;37.17;;;20.13;;
44893;SDS011;30625;52.206;21.030;2022-11-09T11:34:42;35.05;;;19.73;;
44893;SDS011;30625;52.206;21.030;2022-11-09T11:37:28;34.42;;;19.05;;
44893;SDS011;30625;52.206;21.030;2022-11-09T11:40:09;33.67;;;18.35;;
44893;SDS011;30625;52.206;21.030;2022-11-09T11:54:17;34.53;;;19.27;;
44893;SDS011;30625;52.206;21.030;2022-11-09T12:02:40;30.75;;;18.33;;
44893;SDS011;30625;52.206;21.030;2022-11-09T12:11:00;34.10;;;18.97;;
44893;SDS011;30625;52.206;21.030;2022-11-09T12:16:44;32.85;;;18.63;;
44893;SDS011;30625;52.206;21.030;2022-11-09T12:19:36;33.28;;;18.10;;
44893;SDS011;30625;52.206;21.030;2022-11-09T12:24:58;31.65;;;17.95;;
44893;SDS011;30625;52.206;21.030;2022-11-09T12:30:13;29.23;;;17.17;;
44893;SDS011;30625;52.206;21.030;2022-11-09T12:41:22;30.73;;;17.50;;
44893;SDS011;30625;52.206;21.030;2022-11-09T12:44:09;37.00;;;17.65;;
44893;SDS011;30625;52.206;21.030;2022-11-09T12:46:47;30.77;;;17.83;;
44893;SDS011;30625;52.206;21.030;2022-11-09T12:49:38;29.63;;;17.50;;
44893;SDS011;30625;52.206;21.030;2022-11-09T12:52:05;33.15;;;17.70;;
44893;SDS011;30625;52.206;21.030;2022-11-09T12:54:33;32.90;;;18.98;;
44893;SDS011;30625;52.206;21.030;2022-11-09T12:57:04;37.33;;;17.20;;
44893;SDS011;30625;52.206;21.030;2022-11-09T12:59:43;28.33;;;16.48;;
44893;SDS011;30625;52.206;21.030;2022-11-09T13:02:22;30.98;;;17.63;;
44893;SDS011;30625;52.206;21.030;2022-11-09T13:04:59;31.25;;;18.45;;
44893;SDS011;30625;52.206;21.030;2022-11-09T13:07:29;31.55;;;17.00;;
44893;SDS011;30625;52.206;21.030;2022-11-09T13:09:55;31.23;;;17.52;;
44893;SDS011;30625;52.206;21.030;2022-11-09T13:12:29;31.20;;;17.67;;
44893;SDS011;30625;52.206;21.030;2022-11-09T13:17:54;35.20;;;19.48;;
44893;SDS011;30625;52.206;21.030;2022-11-09T13:22:59;33.50;;;17.48;;
44893;SDS011;30625;52.206;21.030;2022-11-09T13:25:48;27.20;;;16.80;;
44893;SDS011;30625;52.206;21.030;2022-11-09T13:31:08;33.53;;;18.02;;
44893;SDS011;30625;52.206;21.030;2022-11-09T13:33:35;32.88;;;17.20;;
44893;SDS011;30625;52.206;21.030;2022-11-09T13:38:33;33.42;;;16.95;;
44893;SDS011;30625;52.206;21.030;2022-11-09T13:41:01;35.15;;;16.98;;
44893;SDS011;30625;52.206;21.030;2022-11-09T13:43:38;34.67;;;18.02;;
44893;SDS011;30625;52.206;21.030;2022-11-09T13:48:51;32.03;;;16.90;;
44893;SDS011;30625;52.206;21.030;2022-11-09T13:51:18;38.50;;;18.80;;
44893;SDS011;30625;52.206;21.030;2022-11-09T13:54:03;33.65;;;18.17;;
44893;SDS011;30625;52.206;21.030;2022-11-09T13:56:49;33.22;;;16.42;;
44893;SDS011;30625;52.206;21.030;2022-11-09T13:59:27;31.70;;;17.63;;
44893;SDS011;30625;52.206;21.030;2022-11-09T14:01:57;32.15;;;17.40;;
44893;SDS011;30625;52.206;21.030;2022-11-09T14:04:28;34.40;;;18.15;;
44893;SDS011;30625;52.206;21.030;2022-11-09T14:17:57;31.85;;;17.30;;
44893;SDS011;30625;52.206;21.030;2022-11-09T14:23:27;34.47;;;17.52;;
44893;SDS011;30625;52.206;21.030;2022-11-09T14:25:55;30.73;;;17.80;;
44893;SDS011;30625;52.206;21.030;2022-11-09T14:28:22;32.90;;;17.83;;
44893;SDS011;30625;52.206;21.030;2022-11-09T14:30:51;32.38;;;18.13;;
44893;SDS011;30625;52.206;21.030;2022-11-09T14:33:21;35.55;;;18.33;;
44893;SDS011;30625;52.206;21.030;2022-11-09T14:35:51;38.50;;;18.88;;
44893;SDS011;30625;52.206;21.030;2022-11-09T14:40:47;31.30;;;18.48;;
44893;SDS011;30625;52.206;21.030;2022-11-09T14:45:58;32.75;;;18.25;;
44893;SDS011;30625;52.206;21.030;2022-11-09T14:48:29;33.65;;;18.77;;
44893;SDS011;30625;52.206;21.030;2022-11-09T14:50:56;35.30;;;17.90;;
44893;SDS011;30625;52.206;21.030;2022-11-09T14:53:28;31.05;;;17.60;;
44893;SDS011;30625;52.206;21.030;2022-11-09T14:55:58;33.92;;;18.83;;
44893;SDS011;30625;52.206;21.030;2022-11-09T14:58:27;36.20;;;19.73;;
44893;SDS011;30625;52.206;21.030;2022-11-09T15:03:31;33.72;;;18.95;;
44893;SDS011;30625;52.206;21.030;2022-11-09T15:06:10;36.72;;;19.30;;
44893;SDS011;30625;52.206;21.030;2022-11-09T15:08:47;38.95;;;18.70;;
44893;SDS011;30625;52.206;21.030;2022-11-09T15:11:19;37.35;;;19.27;;
44893;SDS011;30625;52.206;21.030;2022-11-09T15:13:54;37.42;;;19.33;;
44893;SDS011;30625;52.206;21.030;2022-11-09T15:18:48;40.58;;;21.10;;
44893;SDS011;30625;52.206;21.030;2022-11-09T15:24:12;37.10;;;18.75;;
44893;SDS011;30625;52.206;21.030;2022-11-09T15:26:40;40.00;;;20.10;;
44893;SDS011;30625;52.206;21.030;2022-11-09T15:29:28;38.65;;;19.88;;
44893;SDS011;30625;52.206;21.030;2022-11-09T15:34:39;41.45;;;20.23;;
44893;SDS011;30625;52.206;21.030;2022-11-09T15:37:24;47.20;;;21.77;;
44893;SDS011;30625;52.206;21.030;2022-11-09T15:39:50;36.75;;;20.10;;
44893;SDS011;30625;52.206;21.030;2022-11-09T15:42:16;47.25;;;19.88;;
44893;SDS011;30625;52.206;21.030;2022-11-09T15:44:42;42.28;;;20.33;;
44893;SDS011;30625;52.206;21.030;2022-11-09T15:47:18;37.33;;;19.85;;
44893;SDS011;30625;52.206;21.030;2022-11-09T15:49:56;48.90;;;21.58;;
44893;SDS011;30625;52.206;21.030;2022-11-09T15:52:23;59.50;;;22.83;;
44893;SDS011;30625;52.206;21.030;2022-11-09T15:54:49;52.72;;;22.88;;
44893;SDS011;30625;52.206;21.030;2022-11-09T15:57:16;40.42;;;19.90;;
44893;SDS011;30625;52.206;21.030;2022-11-09T15:59:44;39.40;;;20.20;;
44893;SDS011;30625;52.206;21.030;2022-11-09T16:02:11;40.50;;;19.88;;
44893;SDS011;30625;52.206;21.030;2022-11-09T16:04:37;38.20;;;20.77;;
44893;SDS011;30625;52.206;21.030;2022-11-09T16:07:04;44.22;;;21.20;;
44893;SDS011;30625;52.206;21.030;2022-11-09T16:09:30;42.55;;;21.23;;
44893;SDS011;30625;52.206;21.030;2022-11-09T16:11:56;40.72;;;21.48;;
44893;SDS011;30625;52.206;21.030;2022-11-09T16:14:22;35.60;;;19.30;;
44893;SDS011;30625;52.206;21.030;2022-11-09T16:16:48;40.63;;;20.98;;
44893;SDS011;30625;52.206;21.030;2022-11-09T16:19:14;41.45;;;20.48;;
44893;SDS011;30625;52.206;21.030;2022-11-09T16:21:40;40.13;;;22.00;;
44893;SDS011;30625;52.206;21.030;2022-11-09T16:24:06;46.60;;;21.73;;
44893;SDS011;30625;52.206;21.030;2022-11-09T16:26:32;52.50;;;23.17;;